sensor_id;sensor_type;location;lat;lon;timestamp;temperature;humidity
11221;DHT22;8517;53.546;10.104;2023-03-04T00:02:17;8.80;99.90
11221;DHT22;8517;53.546;10.104;2023-03-04T00:04:44;8.80;99.90
11221;DHT22;8517;53.546;10.104;2023-03-04T00:07:11;8.80;99.90
11221;DHT22;8517;53.546;10.104;2023-03-04T00:09:42;8.80;99.90
11221;DHT22;8517;53.546;10.104;2023-03-04T00:12:09;8.80;99.90
11221;DHT22;8517;53.546;10.104;2023-03-04T00:14:36;8.80;99.90
11221;DHT22;8517;53.546;10.104;2023-03-04T00:17:04;8.80;99.90
11221;DHT22;8517;53.546;10.104;2023-03-04T00:19:31;8.80;99.90
11221;DHT22;8517;53.546;10.104;2023-03-04T00:21:59;8.70;99.90
11221;DHT22;8517;53.546;10.104;2023-03-04T00:24:26;8.80;99.90
11221;DHT22;8517;53.546;10.104;2023-03-04T00:26:53;8.80;99.90
11221;DHT22;8517;53.546;10.104;2023-03-04T00:29:19;8.80;99.90
11221;DHT22;8517;53.546;10.104;2023-03-04T00:31:46;8.80;99.90
11221;DHT22;8517;53.546;10.104;2023-03-04T00:34:15;8.80;99.90
11221;DHT22;8517;53.546;10.104;2023-03-04T00:36:41;8.80;99.90
11221;DHT22;8517;53.546;10.104;2023-03-04T00:39:09;8.80;99.90
11221;DHT22;8517;53.546;10.104;2023-03-04T00:41:36;8.80;99.90
11221;DHT22;8517;53.546;10.104;2023-03-04T00:44:03;8.80;99.90
11221;DHT22;8517;53.546;10.104;2023-03-04T00:46:30;8.80;99.90
11221;DHT22;8517;53.546;10.104;2023-03-04T00:48:57;8.80;99.90
11221;DHT22;8517;53.546;10.104;2023-03-04T00:51:25;8.90;99.90
11221;DHT22;8517;53.546;10.104;2023-03-04T00:53:52;8.90;99.90
11221;DHT22;8517;53.546;10.104;2023-03-04T00:56:19;8.80;99.90
11221;DHT22;8517;53.546;10.104;2023-03-04T00:58:45;8.80;99.90
11221;DHT22;8517;53.546;10.104;2023-03-04T01:01:12;8.90;99.90
11221;DHT22;8517;53.546;10.104;2023-03-04T01:03:39;8.80;99.90
11221;DHT22;8517;53.546;10.104;2023-03-04T01:06:07;8.90;99.90
11221;DHT22;8517;53.546;10.104;2023-03-04T01:08:35;8.90;99.90
11221;DHT22;8517;53.546;10.104;2023-03-04T01:11:02;8.90;99.90
11221;DHT22;8517;53.546;10.104;2023-03-04T01:13:29;8.90;99.90
11221;DHT22;8517;53.546;10.104;2023-03-04T01:15:56;8.90;99.90
11221;DHT22;8517;53.546;10.104;2023-03-04T01:18:23;8.90;99.90
11221;DHT22;8517;53.546;10.104;2023-03-04T01:20:49;8.90;99.90
11221;DHT22;8517;53.546;10.104;2023-03-04T01:23:16;8.80;99.90
11221;DHT22;8517;53.546;10.104;2023-03-04T01:25:44;8.90;99.90
11221;DHT22;8517;53.546;10.104;2023-03-04T01:28:11;8.90;99.90
11221;DHT22;8517;53.546;10.104;2023-03-04T01:30:38;8.90;99.90
11221;DHT22;8517;53.546;10.104;2023-03-04T01:33:05;8.90;99.90
11221;DHT22;8517;53.546;10.104;2023-03-04T01:35:32;8.90;99.90
11221;DHT22;8517;53.546;10.104;2023-03-04T01:37:59;8.90;99.90
11221;DHT22;8517;53.546;10.104;2023-03-04T01:40:25;8.90;99.90
11221;DHT22;8517;53.546;10.104;2023-03-04T01:42:54;8.90;99.90
11221;DHT22;8517;53.546;10.104;2023-03-04T01:45:20;8.90;99.90
11221;DHT22;8517;53.546;10.104;2023-03-04T01:47:48;8.90;99.90
11221;DHT22;8517;53.546;10.104;2023-03-04T01:50:20;8.90;99.90
11221;DHT22;8517;53.546;10.104;2023-03-04T01:52:47;8.90;99.90
11221;DHT22;8517;53.546;10.104;2023-03-04T01:55:16;8.90;99.90
11221;DHT22;8517;53.546;10.104;2023-03-04T01:57:45;8.90;99.90
11221;DHT22;8517;53.546;10.104;2023-03-04T02:00:26;8.90;99.90
11221;DHT22;8517;53.546;10.104;2023-03-04T02:02:58;8.90;99.90
11221;DHT22;8517;53.546;10.104;2023-03-04T02:05:25;8.90;99.90
11221;DHT22;8517;53.546;10.104;2023-03-04T02:07:54;8.90;99.90
11221;DHT22;8517;53.546;10.104;2023-03-04T02:10:26;8.90;99.90
11221;DHT22;8517;53.546;10.104;2023-03-04T02:13:07;9.00;99.90
11221;DHT22;8517;53.546;10.104;2023-03-04T02:15:35;8.90;99.90
11221;DHT22;8517;53.546;10.104;2023-03-04T02:18:03;9.00;99.90
11221;DHT22;8517;53.546;10.104;2023-03-04T02:20:37;9.00;99.90
11221;DHT22;8517;53.546;10.104;2023-03-04T02:23:13;8.90;99.90
11221;DHT22;8517;53.546;10.104;2023-03-04T02:25:44;8.90;99.90
11221;DHT22;8517;53.546;10.104;2023-03-04T02:28:14;8.90;99.90
11221;DHT22;8517;53.546;10.104;2023-03-04T02:30:41;8.90;99.90
11221;DHT22;8517;53.546;10.104;2023-03-04T02:33:13;9.00;99.90
11221;DHT22;8517;53.546;10.104;2023-03-04T02:35:41;8.90;99.90
11221;DHT22;8517;53.546;10.104;2023-03-04T02:38:09;8.90;99.90
11221;DHT22;8517;53.546;10.104;2023-03-04T02:40:36;9.00;99.90
11221;DHT22;8517;53.546;10.104;2023-03-04T02:43:05;9.00;99.90
11221;DHT22;8517;53.546;10.104;2023-03-04T02:45:39;8.90;99.90
11221;DHT22;8517;53.546;10.104;2023-03-04T02:48:07;8.90;99.90
11221;DHT22;8517;53.546;10.104;2023-03-04T02:50:36;8.90;99.90
11221;DHT22;8517;53.546;10.104;2023-03-04T02:53:04;9.00;99.90
11221;DHT22;8517;53.546;10.104;2023-03-04T02:55:31;8.90;99.90
11221;DHT22;8517;53.546;10.104;2023-03-04T02:57:58;9.00;99.90
11221;DHT22;8517;53.546;10.104;2023-03-04T03:00:25;9.00;99.90
11221;DHT22;8517;53.546;10.104;2023-03-04T03:02:54;8.90;99.90
11221;DHT22;8517;53.546;10.104;2023-03-04T03:05:23;8.90;99.90
11221;DHT22;8517;53.546;10.104;2023-03-04T03:07:50;8.90;99.90
11221;DHT22;8517;53.546;10.104;2023-03-04T03:10:17;8.90;99.90
11221;DHT22;8517;53.546;10.104;2023-03-04T03:12:45;8.90;99.90
11221;DHT22;8517;53.546;10.104;2023-03-04T03:15:11;8.90;99.90
11221;DHT22;8517;53.546;10.104;2023-03-04T03:17:38;8.90;99.90
11221;DHT22;8517;53.546;10.104;2023-03-04T03:20:09;8.90;99.90
11221;DHT22;8517;53.546;10.104;2023-03-04T03:22:37;8.90;99.90
11221;DHT22;8517;53.546;10.104;2023-03-04T03:25:05;8.90;99.90
11221;DHT22;8517;53.546;10.104;2023-03-04T03:27:32;8.90;99.90
11221;DHT22;8517;53.546;10.104;2023-03-04T03:29:59;8.90;99.90
11221;DHT22;8517;53.546;10.104;2023-03-04T03:32:25;8.90;99.90
11221;DHT22;8517;53.546;10.104;2023-03-04T03:34:52;8.90;99.90
11221;DHT22;8517;53.546;10.104;2023-03-04T03:37:20;8.90;99.90
11221;DHT22;8517;53.546;10.104;2023-03-04T03:39:47;8.90;99.90
11221;DHT22;8517;53.546;10.104;2023-03-04T03:42:14;8.90;99.90
11221;DHT22;8517;53.546;10.104;2023-03-04T03:44:41;8.90;99.90
11221;DHT22;8517;53.546;10.104;2023-03-04T03:47:07;8.90;99.90
11221;DHT22;8517;53.546;10.104;2023-03-04T03:49:34;8.90;99.90
11221;DHT22;8517;53.546;10.104;2023-03-04T03:52:01;8.90;99.90
11221;DHT22;8517;53.546;10.104;2023-03-04T03:54:29;9.00;99.90
11221;DHT22;8517;53.546;10.104;2023-03-04T03:56:56;9.00;99.90
11221;DHT22;8517;53.546;10.104;2023-03-04T03:59:23;9.00;99.90
11221;DHT22;8517;53.546;10.104;2023-03-04T04:01:49;9.00;99.90
11221;DHT22;8517;53.546;10.104;2023-03-04T04:04:16;9.00;99.90
11221;DHT22;8517;53.546;10.104;2023-03-04T04:06:43;8.90;99.90
11221;DHT22;8517;53.546;10.104;2023-03-04T04:09:10;8.90;99.90
11221;DHT22;8517;53.546;10.104;2023-03-04T04:11:38;8.90;99.90
11221;DHT22;8517;53.546;10.104;2023-03-04T04:14:05;8.90;99.90
11221;DHT22;8517;53.546;10.104;2023-03-04T04:16:31;8.90;99.90
11221;DHT22;8517;53.546;10.104;2023-03-04T04:18:58;8.90;99.90
11221;DHT22;8517;53.546;10.104;2023-03-04T04:21:25;8.90;99.90
11221;DHT22;8517;53.546;10.104;2023-03-04T04:23:52;8.90;99.90
11221;DHT22;8517;53.546;10.104;2023-03-04T04:26:19;8.80;99.90
11221;DHT22;8517;53.546;10.104;2023-03-04T04:28:47;8.80;99.90
11221;DHT22;8517;53.546;10.104;2023-03-04T04:31:14;8.80;99.90
11221;DHT22;8517;53.546;10.104;2023-03-04T04:33:41;8.90;99.90
11221;DHT22;8517;53.546;10.104;2023-03-04T04:36:11;8.90;99.90
11221;DHT22;8517;53.546;10.104;2023-03-04T04:38:38;8.90;99.90
11221;DHT22;8517;53.546;10.104;2023-03-04T04:41:07;8.90;99.90
11221;DHT22;8517;53.546;10.104;2023-03-04T04:43:36;8.90;99.90
11221;DHT22;8517;53.546;10.104;2023-03-04T04:46:04;8.90;99.90
11221;DHT22;8517;53.546;10.104;2023-03-04T04:48:31;8.90;99.90
11221;DHT22;8517;53.546;10.104;2023-03-04T04:50:57;8.90;99.90
11221;DHT22;8517;53.546;10.104;2023-03-04T04:53:24;8.90;99.90
11221;DHT22;8517;53.546;10.104;2023-03-04T04:55:51;8.90;99.90
11221;DHT22;8517;53.546;10.104;2023-03-04T04:58:18;8.90;99.90
11221;DHT22;8517;53.546;10.104;2023-03-04T05:00:44;8.90;99.90
11221;DHT22;8517;53.546;10.104;2023-03-04T05:03:13;8.90;99.90
11221;DHT22;8517;53.546;10.104;2023-03-04T05:05:39;9.00;99.90
11221;DHT22;8517;53.546;10.104;2023-03-04T05:08:06;9.00;99.90
11221;DHT22;8517;53.546;10.104;2023-03-04T05:10:33;9.00;99.90
11221;DHT22;8517;53.546;10.104;2023-03-04T05:13:00;8.90;99.90
11221;DHT22;8517;53.546;10.104;2023-03-04T05:15:26;9.00;99.90
11221;DHT22;8517;53.546;10.104;2023-03-04T05:17:53;9.00;99.90
11221;DHT22;8517;53.546;10.104;2023-03-04T05:20:21;9.00;99.90
11221;DHT22;8517;53.546;10.104;2023-03-04T05:22:48;8.90;99.90
11221;DHT22;8517;53.546;10.104;2023-03-04T05:25:15;9.00;99.90
11221;DHT22;8517;53.546;10.104;2023-03-04T05:27:42;9.00;99.90
11221;DHT22;8517;53.546;10.104;2023-03-04T05:30:10;9.00;99.90
11221;DHT22;8517;53.546;10.104;2023-03-04T05:32:37;9.00;99.90
11221;DHT22;8517;53.546;10.104;2023-03-04T05:35:05;9.00;99.90
11221;DHT22;8517;53.546;10.104;2023-03-04T05:37:33;9.00;99.90
11221;DHT22;8517;53.546;10.104;2023-03-04T05:40:00;9.00;99.90
11221;DHT22;8517;53.546;10.104;2023-03-04T05:42:27;9.10;99.90
11221;DHT22;8517;53.546;10.104;2023-03-04T05:44:53;9.10;99.90
11221;DHT22;8517;53.546;10.104;2023-03-04T05:47:20;9.10;99.90
11221;DHT22;8517;53.546;10.104;2023-03-04T05:49:47;9.00;99.90
11221;DHT22;8517;53.546;10.104;2023-03-04T05:52:14;9.00;99.90
11221;DHT22;8517;53.546;10.104;2023-03-04T05:54:42;9.00;99.90
11221;DHT22;8517;53.546;10.104;2023-03-04T05:57:08;9.00;99.90
11221;DHT22;8517;53.546;10.104;2023-03-04T05:59:35;8.90;99.90
11221;DHT22;8517;53.546;10.104;2023-03-04T06:02:02;9.00;99.90
11221;DHT22;8517;53.546;10.104;2023-03-04T06:04:29;8.90;99.90
11221;DHT22;8517;53.546;10.104;2023-03-04T06:06:56;8.90;99.90
11221;DHT22;8517;53.546;10.104;2023-03-04T06:09:22;8.90;99.90
11221;DHT22;8517;53.546;10.104;2023-03-04T06:11:51;8.90;99.90
11221;DHT22;8517;53.546;10.104;2023-03-04T06:14:18;8.90;99.90
11221;DHT22;8517;53.546;10.104;2023-03-04T06:16:44;8.80;99.90
11221;DHT22;8517;53.546;10.104;2023-03-04T06:19:11;8.80;99.90
11221;DHT22;8517;53.546;10.104;2023-03-04T06:21:38;8.80;99.90
11221;DHT22;8517;53.546;10.104;2023-03-04T06:24:05;8.80;99.90
11221;DHT22;8517;53.546;10.104;2023-03-04T06:26:32;8.80;99.90
11221;DHT22;8517;53.546;10.104;2023-03-04T06:29:00;8.80;99.90
11221;DHT22;8517;53.546;10.104;2023-03-04T06:31:27;8.80;99.90
11221;DHT22;8517;53.546;10.104;2023-03-04T06:33:53;8.80;99.90
11221;DHT22;8517;53.546;10.104;2023-03-04T06:36:20;8.80;99.90
11221;DHT22;8517;53.546;10.104;2023-03-04T06:38:47;8.80;99.90
11221;DHT22;8517;53.546;10.104;2023-03-04T06:41:14;8.70;99.90
11221;DHT22;8517;53.546;10.104;2023-03-04T06:43:41;8.70;99.90
11221;DHT22;8517;53.546;10.104;2023-03-04T06:46:09;8.70;99.90
11221;DHT22;8517;53.546;10.104;2023-03-04T06:48:36;8.70;99.90
11221;DHT22;8517;53.546;10.104;2023-03-04T06:51:08;8.70;99.90
11221;DHT22;8517;53.546;10.104;2023-03-04T06:53:35;8.60;99.90
11221;DHT22;8517;53.546;10.104;2023-03-04T06:56:03;8.70;99.90
11221;DHT22;8517;53.546;10.104;2023-03-04T06:58:30;8.60;99.90
11221;DHT22;8517;53.546;10.104;2023-03-04T07:00:56;8.60;99.90
11221;DHT22;8517;53.546;10.104;2023-03-04T07:03:25;8.60;99.90
11221;DHT22;8517;53.546;10.104;2023-03-04T07:05:51;8.60;99.90
11221;DHT22;8517;53.546;10.104;2023-03-04T07:08:18;8.60;99.90
11221;DHT22;8517;53.546;10.104;2023-03-04T07:10:45;8.60;99.90
11221;DHT22;8517;53.546;10.104;2023-03-04T07:13:12;8.60;99.90
11221;DHT22;8517;53.546;10.104;2023-03-04T07:15:39;8.60;99.90
11221;DHT22;8517;53.546;10.104;2023-03-04T07:18:06;8.60;99.90
11221;DHT22;8517;53.546;10.104;2023-03-04T07:20:34;8.60;99.90
11221;DHT22;8517;53.546;10.104;2023-03-04T07:23:04;8.60;99.90
11221;DHT22;8517;53.546;10.104;2023-03-04T07:25:31;8.60;99.90
11221;DHT22;8517;53.546;10.104;2023-03-04T07:27:58;8.60;99.90
11221;DHT22;8517;53.546;10.104;2023-03-04T07:30:25;8.60;99.90
11221;DHT22;8517;53.546;10.104;2023-03-04T07:32:56;8.60;99.90
11221;DHT22;8517;53.546;10.104;2023-03-04T07:35:22;8.60;99.90
11221;DHT22;8517;53.546;10.104;2023-03-04T07:37:51;8.70;99.90
11221;DHT22;8517;53.546;10.104;2023-03-04T07:40:18;8.60;99.90
11221;DHT22;8517;53.546;10.104;2023-03-04T07:42:48;8.70;99.90
11221;DHT22;8517;53.546;10.104;2023-03-04T07:45:16;8.70;99.90
11221;DHT22;8517;53.546;10.104;2023-03-04T07:47:42;8.70;99.90
11221;DHT22;8517;53.546;10.104;2023-03-04T07:50:10;8.70;99.90
11221;DHT22;8517;53.546;10.104;2023-03-04T07:52:38;8.70;99.90
11221;DHT22;8517;53.546;10.104;2023-03-04T07:55:07;8.70;99.90
11221;DHT22;8517;53.546;10.104;2023-03-04T07:57:34;8.70;99.90
11221;DHT22;8517;53.546;10.104;2023-03-04T08:00:01;8.70;99.90
11221;DHT22;8517;53.546;10.104;2023-03-04T08:02:28;8.70;99.90
11221;DHT22;8517;53.546;10.104;2023-03-04T08:04:54;8.80;99.90
11221;DHT22;8517;53.546;10.104;2023-03-04T08:07:22;8.70;99.90
11221;DHT22;8517;53.546;10.104;2023-03-04T08:09:49;8.80;99.90
11221;DHT22;8517;53.546;10.104;2023-03-04T08:12:17;8.80;99.90
11221;DHT22;8517;53.546;10.104;2023-03-04T08:14:44;8.80;99.90
11221;DHT22;8517;53.546;10.104;2023-03-04T08:17:11;8.70;99.90
11221;DHT22;8517;53.546;10.104;2023-03-04T08:19:39;8.80;99.90
11221;DHT22;8517;53.546;10.104;2023-03-04T08:22:06;8.80;99.90
11221;DHT22;8517;53.546;10.104;2023-03-04T08:24:33;8.70;99.90
11221;DHT22;8517;53.546;10.104;2023-03-04T08:27:00;8.80;99.90
11221;DHT22;8517;53.546;10.104;2023-03-04T08:29:28;8.80;99.90
11221;DHT22;8517;53.546;10.104;2023-03-04T08:31:55;8.80;99.90
11221;DHT22;8517;53.546;10.104;2023-03-04T08:34:26;8.80;99.90
11221;DHT22;8517;53.546;10.104;2023-03-04T08:36:53;8.80;99.90
11221;DHT22;8517;53.546;10.104;2023-03-04T08:39:20;8.80;99.90
11221;DHT22;8517;53.546;10.104;2023-03-04T08:44:51;8.80;99.90
11221;DHT22;8517;53.546;10.104;2023-03-04T08:47:17;8.80;99.90
11221;DHT22;8517;53.546;10.104;2023-03-04T08:49:44;8.80;99.90
11221;DHT22;8517;53.546;10.104;2023-03-04T08:52:15;8.80;99.90
11221;DHT22;8517;53.546;10.104;2023-03-04T08:54:44;8.80;99.90
11221;DHT22;8517;53.546;10.104;2023-03-04T08:57:14;8.80;99.90
11221;DHT22;8517;53.546;10.104;2023-03-04T08:59:41;8.80;99.90
11221;DHT22;8517;53.546;10.104;2023-03-04T09:02:10;8.90;99.90
11221;DHT22;8517;53.546;10.104;2023-03-04T09:04:36;8.90;99.90
11221;DHT22;8517;53.546;10.104;2023-03-04T09:07:05;8.90;99.90
11221;DHT22;8517;53.546;10.104;2023-03-04T09:09:33;8.90;99.90
11221;DHT22;8517;53.546;10.104;2023-03-04T09:12:00;8.90;99.90
11221;DHT22;8517;53.546;10.104;2023-03-04T09:14:27;8.90;99.90
11221;DHT22;8517;53.546;10.104;2023-03-04T09:16:57;8.90;99.90
11221;DHT22;8517;53.546;10.104;2023-03-04T09:19:25;8.90;99.90
11221;DHT22;8517;53.546;10.104;2023-03-04T09:22:09;8.90;99.90
11221;DHT22;8517;53.546;10.104;2023-03-04T09:25:02;8.90;99.90
11221;DHT22;8517;53.546;10.104;2023-03-04T09:27:39;8.90;99.90
11221;DHT22;8517;53.546;10.104;2023-03-04T09:30:07;8.90;99.90
11221;DHT22;8517;53.546;10.104;2023-03-04T09:32:34;9.00;99.90
11221;DHT22;8517;53.546;10.104;2023-03-04T09:35:03;9.00;99.90
11221;DHT22;8517;53.546;10.104;2023-03-04T09:37:30;9.00;99.90
11221;DHT22;8517;53.546;10.104;2023-03-04T09:39:57;9.00;99.90
11221;DHT22;8517;53.546;10.104;2023-03-04T09:42:27;9.00;99.90
11221;DHT22;8517;53.546;10.104;2023-03-04T09:44:56;9.00;99.90
11221;DHT22;8517;53.546;10.104;2023-03-04T09:47:24;9.00;99.90
11221;DHT22;8517;53.546;10.104;2023-03-04T09:49:55;9.00;99.90
11221;DHT22;8517;53.546;10.104;2023-03-04T09:52:36;9.10;99.90
11221;DHT22;8517;53.546;10.104;2023-03-04T09:55:15;9.10;99.90
11221;DHT22;8517;53.546;10.104;2023-03-04T09:57:48;9.20;99.90
11221;DHT22;8517;53.546;10.104;2023-03-04T10:00:18;9.20;99.90
11221;DHT22;8517;53.546;10.104;2023-03-04T10:03:03;9.30;99.90
11221;DHT22;8517;53.546;10.104;2023-03-04T10:05:33;9.20;99.90
11221;DHT22;8517;53.546;10.104;2023-03-04T10:08:11;9.40;99.90
11221;DHT22;8517;53.546;10.104;2023-03-04T10:10:44;9.40;99.90
11221;DHT22;8517;53.546;10.104;2023-03-04T10:13:15;9.40;99.90
11221;DHT22;8517;53.546;10.104;2023-03-04T10:15:47;9.40;99.90
11221;DHT22;8517;53.546;10.104;2023-03-04T10:18:18;9.50;99.90
11221;DHT22;8517;53.546;10.104;2023-03-04T10:20:52;9.50;99.90
11221;DHT22;8517;53.546;10.104;2023-03-04T10:23:24;9.50;99.90
11221;DHT22;8517;53.546;10.104;2023-03-04T10:25:51;9.50;99.90
11221;DHT22;8517;53.546;10.104;2023-03-04T10:28:22;9.60;99.90
11221;DHT22;8517;53.546;10.104;2023-03-04T10:30:55;9.60;99.90
11221;DHT22;8517;53.546;10.104;2023-03-04T10:33:25;9.70;99.90
11221;DHT22;8517;53.546;10.104;2023-03-04T10:35:57;9.70;99.90
11221;DHT22;8517;53.546;10.104;2023-03-04T10:38:28;9.70;99.90
11221;DHT22;8517;53.546;10.104;2023-03-04T10:40:57;9.70;99.90
11221;DHT22;8517;53.546;10.104;2023-03-04T10:43:24;9.70;99.90
11221;DHT22;8517;53.546;10.104;2023-03-04T10:45:54;9.70;99.90
11221;DHT22;8517;53.546;10.104;2023-03-04T10:48:25;9.80;99.90
11221;DHT22;8517;53.546;10.104;2023-03-04T10:50:53;9.80;99.90
11221;DHT22;8517;53.546;10.104;2023-03-04T10:53:32;9.90;99.90
11221;DHT22;8517;53.546;10.104;2023-03-04T10:56:10;9.90;99.90
11221;DHT22;8517;53.546;10.104;2023-03-04T11:02:19;9.90;99.90
11221;DHT22;8517;53.546;10.104;2023-03-04T11:04:55;10.00;99.90
11221;DHT22;8517;53.546;10.104;2023-03-04T11:07:24;10.00;99.90
11221;DHT22;8517;53.546;10.104;2023-03-04T11:09:52;10.00;99.90
11221;DHT22;8517;53.546;10.104;2023-03-04T11:12:21;9.90;99.90
11221;DHT22;8517;53.546;10.104;2023-03-04T11:14:57;10.00;99.90
11221;DHT22;8517;53.546;10.104;2023-03-04T11:17:25;10.00;99.90
11221;DHT22;8517;53.546;10.104;2023-03-04T11:19:56;10.00;99.90
11221;DHT22;8517;53.546;10.104;2023-03-04T11:22:26;10.10;99.90
11221;DHT22;8517;53.546;10.104;2023-03-04T11:25:02;10.10;99.90
11221;DHT22;8517;53.546;10.104;2023-03-04T11:27:38;10.10;99.90
11221;DHT22;8517;53.546;10.104;2023-03-04T11:30:28;10.20;99.90
11221;DHT22;8517;53.546;10.104;2023-03-04T11:33:05;10.20;99.90
11221;DHT22;8517;53.546;10.104;2023-03-04T11:35:41;10.30;99.90
11221;DHT22;8517;53.546;10.104;2023-03-04T11:38:16;10.30;99.90
11221;DHT22;8517;53.546;10.104;2023-03-04T11:40:49;10.40;99.90
11221;DHT22;8517;53.546;10.104;2023-03-04T11:43:22;10.50;99.90
11221;DHT22;8517;53.546;10.104;2023-03-04T11:46:11;10.60;99.90
11221;DHT22;8517;53.546;10.104;2023-03-04T11:48:49;10.70;99.90
11221;DHT22;8517;53.546;10.104;2023-03-04T11:51:22;10.70;99.90
11221;DHT22;8517;53.546;10.104;2023-03-04T11:54:00;10.70;99.90
11221;DHT22;8517;53.546;10.104;2023-03-04T11:56:48;10.70;99.90
11221;DHT22;8517;53.546;10.104;2023-03-04T11:59:47;10.80;99.90
11221;DHT22;8517;53.546;10.104;2023-03-04T12:02:18;10.80;99.90
11221;DHT22;8517;53.546;10.104;2023-03-04T12:11:01;10.90;99.90
11221;DHT22;8517;53.546;10.104;2023-03-04T12:14:01;10.90;99.90
11221;DHT22;8517;53.546;10.104;2023-03-04T12:19:56;10.90;99.90
11221;DHT22;8517;53.546;10.104;2023-03-04T12:22:41;10.80;99.90
11221;DHT22;8517;53.546;10.104;2023-03-04T12:25:26;10.80;99.90
11221;DHT22;8517;53.546;10.104;2023-03-04T12:28:22;10.80;99.90
11221;DHT22;8517;53.546;10.104;2023-03-04T12:31:03;10.80;99.90
11221;DHT22;8517;53.546;10.104;2023-03-04T12:33:59;10.80;99.90
11221;DHT22;8517;53.546;10.104;2023-03-04T12:36:37;10.80;99.90
11221;DHT22;8517;53.546;10.104;2023-03-04T12:39:21;10.80;99.90
11221;DHT22;8517;53.546;10.104;2023-03-04T12:42:01;10.80;99.90
11221;DHT22;8517;53.546;10.104;2023-03-04T12:44:35;10.70;99.90
11221;DHT22;8517;53.546;10.104;2023-03-04T12:47:16;10.70;99.90
11221;DHT22;8517;53.546;10.104;2023-03-04T12:49:59;10.70;99.90
11221;DHT22;8517;53.546;10.104;2023-03-04T12:52:38;10.80;99.90
11221;DHT22;8517;53.546;10.104;2023-03-04T12:55:11;10.90;99.90
11221;DHT22;8517;53.546;10.104;2023-03-04T12:57:40;10.90;99.90
11221;DHT22;8517;53.546;10.104;2023-03-04T13:00:16;10.90;99.90
11221;DHT22;8517;53.546;10.104;2023-03-04T13:03:05;10.90;99.90
11221;DHT22;8517;53.546;10.104;2023-03-04T13:05:48;10.90;99.90
11221;DHT22;8517;53.546;10.104;2023-03-04T13:08:32;10.90;99.90
11221;DHT22;8517;53.546;10.104;2023-03-04T13:11:42;10.90;99.90
11221;DHT22;8517;53.546;10.104;2023-03-04T13:14:29;11.10;99.90
11221;DHT22;8517;53.546;10.104;2023-03-04T13:16:57;11.30;99.90
11221;DHT22;8517;53.546;10.104;2023-03-04T13:19:44;11.40;99.90
11221;DHT22;8517;53.546;10.104;2023-03-04T13:22:45;11.50;99.90
11221;DHT22;8517;53.546;10.104;2023-03-04T13:25:30;11.60;99.90
11221;DHT22;8517;53.546;10.104;2023-03-04T13:28:16;11.50;99.90
11221;DHT22;8517;53.546;10.104;2023-03-04T13:34:50;11.40;99.90
11221;DHT22;8517;53.546;10.104;2023-03-04T13:37:31;11.30;99.90
11221;DHT22;8517;53.546;10.104;2023-03-04T13:40:23;11.20;99.90
11221;DHT22;8517;53.546;10.104;2023-03-04T13:42:52;11.10;99.90
11221;DHT22;8517;53.546;10.104;2023-03-04T13:45:33;11.10;99.90
11221;DHT22;8517;53.546;10.104;2023-03-04T13:48:02;11.00;99.90
11221;DHT22;8517;53.546;10.104;2023-03-04T13:50:38;11.00;99.90
11221;DHT22;8517;53.546;10.104;2023-03-04T13:53:39;11.00;99.90
11221;DHT22;8517;53.546;10.104;2023-03-04T13:56:30;11.00;99.90
11221;DHT22;8517;53.546;10.104;2023-03-04T13:59:25;11.00;99.90
11221;DHT22;8517;53.546;10.104;2023-03-04T14:01:58;10.90;99.90
11221;DHT22;8517;53.546;10.104;2023-03-04T14:04:31;10.90;99.90
11221;DHT22;8517;53.546;10.104;2023-03-04T14:07:02;10.80;99.90
11221;DHT22;8517;53.546;10.104;2023-03-04T14:09:31;10.80;99.90
11221;DHT22;8517;53.546;10.104;2023-03-04T14:11:59;10.70;99.90
11221;DHT22;8517;53.546;10.104;2023-03-04T14:14:41;10.70;99.90
11221;DHT22;8517;53.546;10.104;2023-03-04T14:17:16;10.60;99.90
11221;DHT22;8517;53.546;10.104;2023-03-04T14:19:47;10.60;99.90
11221;DHT22;8517;53.546;10.104;2023-03-04T14:22:24;10.60;99.90
11221;DHT22;8517;53.546;10.104;2023-03-04T14:24:56;10.50;99.90
11221;DHT22;8517;53.546;10.104;2023-03-04T14:27:24;10.50;99.90
11221;DHT22;8517;53.546;10.104;2023-03-04T14:29:55;10.40;99.90
11221;DHT22;8517;53.546;10.104;2023-03-04T14:32:23;10.40;99.90
11221;DHT22;8517;53.546;10.104;2023-03-04T14:34:55;10.40;99.90
11221;DHT22;8517;53.546;10.104;2023-03-04T14:37:26;10.30;99.90
11221;DHT22;8517;53.546;10.104;2023-03-04T14:39:56;10.30;99.90
11221;DHT22;8517;53.546;10.104;2023-03-04T14:42:30;10.20;99.90
11221;DHT22;8517;53.546;10.104;2023-03-04T14:44:59;10.20;99.90
11221;DHT22;8517;53.546;10.104;2023-03-04T14:47:33;10.20;99.90
11221;DHT22;8517;53.546;10.104;2023-03-04T14:50:04;10.20;99.90
11221;DHT22;8517;53.546;10.104;2023-03-04T14:52:37;10.20;99.90
11221;DHT22;8517;53.546;10.104;2023-03-04T14:55:22;10.20;99.90
11221;DHT22;8517;53.546;10.104;2023-03-04T14:57:50;10.10;99.90
11221;DHT22;8517;53.546;10.104;2023-03-04T15:00:32;10.10;99.90
11221;DHT22;8517;53.546;10.104;2023-03-04T15:03:00;10.10;99.90
11221;DHT22;8517;53.546;10.104;2023-03-04T15:05:29;10.10;99.90
11221;DHT22;8517;53.546;10.104;2023-03-04T15:07:59;10.00;99.90
11221;DHT22;8517;53.546;10.104;2023-03-04T15:10:28;10.00;99.90
11221;DHT22;8517;53.546;10.104;2023-03-04T15:12:59;10.00;99.90
11221;DHT22;8517;53.546;10.104;2023-03-04T15:15:45;10.00;99.90
11221;DHT22;8517;53.546;10.104;2023-03-04T15:18:24;9.90;99.90
11221;DHT22;8517;53.546;10.104;2023-03-04T15:20:53;9.90;99.90
11221;DHT22;8517;53.546;10.104;2023-03-04T15:23:24;9.80;99.90
11221;DHT22;8517;53.546;10.104;2023-03-04T15:25:52;9.80;99.90
11221;DHT22;8517;53.546;10.104;2023-03-04T15:28:21;9.70;99.90
11221;DHT22;8517;53.546;10.104;2023-03-04T15:30:48;9.60;99.90
11221;DHT22;8517;53.546;10.104;2023-03-04T15:33:16;9.60;99.90
11221;DHT22;8517;53.546;10.104;2023-03-04T15:35:48;9.60;99.90
11221;DHT22;8517;53.546;10.104;2023-03-04T15:38:15;9.50;99.90
11221;DHT22;8517;53.546;10.104;2023-03-04T15:40:46;9.50;99.90
11221;DHT22;8517;53.546;10.104;2023-03-04T15:43:18;9.40;99.90
11221;DHT22;8517;53.546;10.104;2023-03-04T15:45:52;9.40;99.90
11221;DHT22;8517;53.546;10.104;2023-03-04T15:48:22;9.30;99.90
11221;DHT22;8517;53.546;10.104;2023-03-04T15:50:53;9.30;99.90
11221;DHT22;8517;53.546;10.104;2023-03-04T15:53:26;9.20;99.90
11221;DHT22;8517;53.546;10.104;2023-03-04T15:56:01;9.20;99.90
11221;DHT22;8517;53.546;10.104;2023-03-04T15:58:31;9.10;99.90
11221;DHT22;8517;53.546;10.104;2023-03-04T16:00:58;9.10;99.90
11221;DHT22;8517;53.546;10.104;2023-03-04T16:03:30;9.00;99.90
11221;DHT22;8517;53.546;10.104;2023-03-04T16:06:02;9.00;99.90
11221;DHT22;8517;53.546;10.104;2023-03-04T16:08:29;9.00;99.90
11221;DHT22;8517;53.546;10.104;2023-03-04T16:14:20;8.90;99.90
11221;DHT22;8517;53.546;10.104;2023-03-04T16:16:47;8.90;99.90
11221;DHT22;8517;53.546;10.104;2023-03-04T16:19:15;8.90;99.90
11221;DHT22;8517;53.546;10.104;2023-03-04T16:21:42;8.90;99.90
11221;DHT22;8517;53.546;10.104;2023-03-04T16:24:14;8.80;99.90
11221;DHT22;8517;53.546;10.104;2023-03-04T16:26:42;8.70;99.90
11221;DHT22;8517;53.546;10.104;2023-03-04T16:29:09;8.80;99.90